createdAt,value
2023-10-09T00:00:32.965Z,52.72
2023-10-09T00:03:01.432Z,52.27
2023-10-09T00:05:46.451Z,51.99
2023-10-09T00:08:22.086Z,52.11
2023-10-09T00:10:57.905Z,52.51
2023-10-09T00:13:34.188Z,51.99
2023-10-09T00:16:14.100Z,51.49
2023-10-09T00:18:46.671Z,51.13
2023-10-09T00:21:20.856Z,50.93
2023-10-09T00:23:54.913Z,50.91
2023-10-09T00:26:23.092Z,51.98
2023-10-09T00:28:51.419Z,51.90
2023-10-09T00:31:28.574Z,50.86
2023-10-09T00:33:55.140Z,51.43
2023-10-09T00:36:28.570Z,52.13
2023-10-09T00:38:55.091Z,52.35
2023-10-09T00:41:22.833Z,52.29
2023-10-09T00:43:50.171Z,51.34
2023-10-09T00:46:21.197Z,49.67
2023-10-09T00:48:57.600Z,49.42
2023-10-09T00:51:24.958Z,49.56
2023-10-09T00:53:57.775Z,50.03
2023-10-09T00:56:26.677Z,50.60
2023-10-09T00:59:09.317Z,50.92
2023-10-09T01:01:39.579Z,50.77
2023-10-09T01:04:07.468Z,50.65
2023-10-09T01:06:36.011Z,50.48
2023-10-09T01:09:11.055Z,50.34
2023-10-09T01:11:48.911Z,50.71
2023-10-09T01:14:17.453Z,51.66
2023-10-09T01:16:44.250Z,52.18
2023-10-09T01:19:25.706Z,52.07
2023-10-09T01:21:52.025Z,51.53
2023-10-09T01:24:18.918Z,51.87
2023-10-09T01:26:44.986Z,52.48
2023-10-09T01:29:15.394Z,53.17
2023-10-09T01:31:47.258Z,52.27
2023-10-09T01:34:13.636Z,52.07
2023-10-09T01:36:40.142Z,51.68
2023-10-09T01:39:21.834Z,51.72
2023-10-09T01:41:50.199Z,52.60
2023-10-09T01:44:16.744Z,52.90
2023-10-09T01:46:46.383Z,53.26
2023-10-09T01:49:21.958Z,53.03
2023-10-09T01:51:51.181Z,53.34
2023-10-09T01:54:33.808Z,53.27
2023-10-09T01:57:05.968Z,53.10
2023-10-09T01:59:38.443Z,53.33
2023-10-09T02:02:16.403Z,52.58
2023-10-09T02:04:42.300Z,52.33
2023-10-09T02:07:09.163Z,51.10
2023-10-09T02:09:35.947Z,50.81
2023-10-09T02:12:02.461Z,51.03
2023-10-09T02:14:28.719Z,51.45
2023-10-09T02:17:03.575Z,50.90
2023-10-09T02:19:40.953Z,51.60
2023-10-09T02:22:16.149Z,51.67
2023-10-09T02:24:49.426Z,51.34
2023-10-09T02:27:20.440Z,51.50
2023-10-09T02:29:47.741Z,52.05
2023-10-09T02:32:26.087Z,52.49
2023-10-09T02:34:54.058Z,52.66
2023-10-09T02:37:25.562Z,53.37
2023-10-09T02:39:53.084Z,55.27
2023-10-09T02:42:26.684Z,56.04
2023-10-09T02:44:52.934Z,56.13
2023-10-09T02:47:29.857Z,56.59
2023-10-09T02:50:06.936Z,55.80
2023-10-09T02:52:40.719Z,54.61
2023-10-09T02:55:14.082Z,53.61
2023-10-09T02:57:42.134Z,53.11
2023-10-09T03:00:19.532Z,52.89
2023-10-09T03:02:49.364Z,51.70
2023-10-09T03:05:15.398Z,52.08
2023-10-09T03:07:41.345Z,51.91
2023-10-09T03:10:09.912Z,51.25
2023-10-09T03:12:36.838Z,53.34
2023-10-09T03:15:06.263Z,54.42
2023-10-09T03:17:34.711Z,53.22
2023-10-09T03:20:14.300Z,52.36
2023-10-09T03:22:43.067Z,51.40
2023-10-09T03:25:14.229Z,51.78
2023-10-09T03:27:45.500Z,50.77
2023-10-09T03:30:25.437Z,50.46
2023-10-09T03:32:53.009Z,50.20
2023-10-09T03:35:24.792Z,50.23
2023-10-09T03:37:57.311Z,50.82
2023-10-09T03:40:25.274Z,50.85
2023-10-09T03:42:51.576Z,50.67
2023-10-09T03:45:28.064Z,50.97
2023-10-09T03:48:23.759Z,51.38
2023-10-09T03:51:06.861Z,51.11
2023-10-09T03:53:32.801Z,51.12
2023-10-09T03:55:59.551Z,51.12
2023-10-09T03:58:31.063Z,50.80
2023-10-09T04:00:57.063Z,50.39
2023-10-09T04:03:23.038Z,50.23
2023-10-09T04:05:52.159Z,50.10
2023-10-09T04:08:20.311Z,49.27
2023-10-09T04:10:55.904Z,48.44
2023-10-09T04:13:23.451Z,48.17
2023-10-09T04:15:52.560Z,47.48
2023-10-09T04:18:28.501Z,47.08
2023-10-09T04:21:13.109Z,46.93
2023-10-09T04:24:07.950Z,46.37
2023-10-09T04:26:35.415Z,45.85
2023-10-09T04:29:02.665Z,46.42
2023-10-09T04:31:37.764Z,46.13
2023-10-09T04:34:23.705Z,46.24
2023-10-09T04:37:01.080Z,46.32
2023-10-09T04:39:30.496Z,46.53
2023-10-09T04:42:16.011Z,46.49
2023-10-09T04:45:00.528Z,46.62
2023-10-09T04:47:36.332Z,46.39
2023-10-09T04:50:12.278Z,46.76
2023-10-09T04:52:38.732Z,46.36
2023-10-09T04:55:18.078Z,46.45
2023-10-09T04:57:46.331Z,46.54
2023-10-09T05:00:43.168Z,46.49
2023-10-09T05:03:13.036Z,47.00
2023-10-09T05:05:43.165Z,46.64
2023-10-09T05:08:20.296Z,46.86
2023-10-09T05:10:59.563Z,46.54
2023-10-09T05:13:42.314Z,46.50
2023-10-09T05:16:33.591Z,46.66
2023-10-09T05:19:08.729Z,46.56
2023-10-09T05:21:42.522Z,45.87
2023-10-09T05:24:15.878Z,45.84
2023-10-09T05:26:49.481Z,46.10
2023-10-09T05:29:35.011Z,46.02
2023-10-09T05:32:05.296Z,45.68
2023-10-09T05:34:35.172Z,45.94
2023-10-09T05:37:18.133Z,45.85
2023-10-09T05:40:02.420Z,45.57
2023-10-09T05:42:42.041Z,45.66
2023-10-09T05:45:19.308Z,45.19
2023-10-09T05:48:04.174Z,45.33
2023-10-09T05:50:38.425Z,45.34
2023-10-09T05:53:07.066Z,45.29
2023-10-09T05:55:58.688Z,45.88
2023-10-09T05:59:02.646Z,45.36
2023-10-09T06:01:47.191Z,45.62
2023-10-09T06:04:16.025Z,45.54
2023-10-09T06:06:45.843Z,45.52
2023-10-09T06:09:13.812Z,45.22
2023-10-09T06:11:49.447Z,45.12
2023-10-09T06:14:25.663Z,45.48
2023-10-09T06:16:57.364Z,44.48
2023-10-09T06:19:27.760Z,44.81
2023-10-09T06:22:17.821Z,45.26
2023-10-09T06:24:55.061Z,44.76
2023-10-09T06:27:47.048Z,44.18
2023-10-09T06:30:13.140Z,44.13
2023-10-09T06:32:50.902Z,44.50
2023-10-09T06:35:30.851Z,44.28
2023-10-09T06:38:04.232Z,43.21
2023-10-09T06:40:53.307Z,43.60
2023-10-09T06:43:23.482Z,43.27
2023-10-09T06:45:55.330Z,43.04
2023-10-09T06:48:34.367Z,42.58
2023-10-09T06:51:08.265Z,43.14
2023-10-09T06:53:53.215Z,42.71
2023-10-09T06:56:25.765Z,43.57
2023-10-09T06:58:55.631Z,42.21
2023-10-09T07:01:28.159Z,41.88
2023-10-09T07:04:00.334Z,42.01
2023-10-09T07:06:36.261Z,41.52
2023-10-09T07:09:05.822Z,41.28
2023-10-09T07:11:42.296Z,41.41
2023-10-09T07:14:31.710Z,41.89
2023-10-09T07:17:04.681Z,40.32
2023-10-09T07:19:34.877Z,40.02
2023-10-09T07:22:03.420Z,40.00
2023-10-09T07:24:43.641Z,40.13
2023-10-09T07:27:14.293Z,39.64
2023-10-09T07:29:49.972Z,39.61
2023-10-09T07:32:22.600Z,39.76
2023-10-09T07:34:57.757Z,38.87
2023-10-09T07:37:24.825Z,39.01
2023-10-09T07:39:58.244Z,39.33
2023-10-09T07:42:43.986Z,40.00
2023-10-09T07:45:21.957Z,39.72
2023-10-09T07:48:00.347Z,39.10
2023-10-09T07:50:50.415Z,39.08
2023-10-09T07:53:19.458Z,39.41
2023-10-09T07:55:56.348Z,39.16
2023-10-09T07:58:26.117Z,38.75
2023-10-09T08:00:59.085Z,38.37
2023-10-09T08:03:25.803Z,38.27
2023-10-09T08:06:07.190Z,38.72
2023-10-09T08:08:38.952Z,38.26
2023-10-09T08:11:40.533Z,37.39
2023-10-09T08:14:25.636Z,37.20
2023-10-09T08:17:11.941Z,37.00
2023-10-09T08:19:53.724Z,38.23
2023-10-09T08:22:30.256Z,37.56
2023-10-09T08:24:56.723Z,36.63
2023-10-09T08:27:32.367Z,37.06
2023-10-09T08:30:18.643Z,37.24
2023-10-09T08:35:31.607Z,36.33
2023-10-09T08:37:59.816Z,36.01
2023-10-09T08:40:39.423Z,35.82
2023-10-09T08:43:18.633Z,35.44
2023-10-09T08:45:52.451Z,35.42
2023-10-09T08:48:18.979Z,35.56
2023-10-09T08:50:47.290Z,35.75
2023-10-09T08:53:14.153Z,35.28
2023-10-09T08:55:41.375Z,35.85
2023-10-09T08:58:16.324Z,36.51
2023-10-09T09:00:46.276Z,35.07
2023-10-09T09:03:16.255Z,35.74
2023-10-09T09:05:46.792Z,34.35
2023-10-09T09:08:26.566Z,34.38
2023-10-09T09:11:11.848Z,34.11
2023-10-09T09:13:48.879Z,34.92
2023-10-09T09:16:18.669Z,34.93
2023-10-09T09:18:56.763Z,34.61
2023-10-09T09:21:23.010Z,34.92
2023-10-09T09:23:58.007Z,34.13
2023-10-09T09:26:38.596Z,34.72
2023-10-09T09:29:06.161Z,34.33
2023-10-09T09:31:38.519Z,34.38
2023-10-09T09:34:13.616Z,34.09
2023-10-09T09:36:59.772Z,34.40
2023-10-09T09:39:38.545Z,35.17
2023-10-09T09:42:14.130Z,33.25
2023-10-09T09:44:49.096Z,33.36
2023-10-09T09:47:27.404Z,33.83
2023-10-09T09:50:00.277Z,33.93
2023-10-09T09:52:38.397Z,33.22
2023-10-09T09:55:05.855Z,33.82
2023-10-09T09:57:39.982Z,34.47
2023-10-09T10:00:18.335Z,33.63
2023-10-09T10:02:45.748Z,33.79
2023-10-09T10:05:16.128Z,33.69
2023-10-09T10:07:43.700Z,33.56
2023-10-09T10:10:34.979Z,34.03
2023-10-09T10:13:01.862Z,33.95
2023-10-09T10:15:57.230Z,33.73
2023-10-09T10:18:32.504Z,33.65
2023-10-09T10:21:14.945Z,33.47
2023-10-09T10:23:40.934Z,35.06
2023-10-09T10:26:30.745Z,33.07
2023-10-09T10:29:24.576Z,34.02
2023-10-09T10:31:55.569Z,33.34
2023-10-09T10:34:24.841Z,33.86
2023-10-09T10:36:58.661Z,33.30
2023-10-09T10:39:43.214Z,33.69
2023-10-09T10:42:14.565Z,33.22
2023-10-09T10:44:44.490Z,33.72
2023-10-09T10:47:25.522Z,32.94
2023-10-09T10:49:52.689Z,32.87
2023-10-09T10:52:23.015Z,33.29
2023-10-09T10:55:20.023Z,32.93
2023-10-09T10:58:01.378Z,32.70
2023-10-09T11:00:47.413Z,32.70
2023-10-09T11:03:36.181Z,33.53
2023-10-09T11:06:14.474Z,33.48
2023-10-09T11:08:54.665Z,33.11
2023-10-09T11:11:21.448Z,32.88
2023-10-09T11:13:54.606Z,33.79
2023-10-09T11:16:42.132Z,34.50
2023-10-09T11:19:35.884Z,33.50
2023-10-09T11:22:08.521Z,33.13
2023-10-09T11:24:35.982Z,32.85
2023-10-09T11:27:06.638Z,32.97
2023-10-09T11:29:42.847Z,32.71
2023-10-09T11:32:11.741Z,32.71
2023-10-09T11:34:37.682Z,33.62
2023-10-09T11:37:13.549Z,33.11
2023-10-09T11:39:58.486Z,32.89
2023-10-09T11:42:49.001Z,33.27
2023-10-09T11:45:28.688Z,34.40
2023-10-09T11:48:04.285Z,34.88
2023-10-09T11:50:51.838Z,34.50
2023-10-09T11:53:25.031Z,34.35
2023-10-09T11:55:53.604Z,34.45
2023-10-09T11:58:23.433Z,34.84
2023-10-09T12:00:59.947Z,34.74
2023-10-09T12:03:30.212Z,34.66
2023-10-09T12:06:12.628Z,35.32
2023-10-09T12:08:41.776Z,35.11
2023-10-09T12:11:12.201Z,35.37
2023-10-09T12:13:39.148Z,35.69
2023-10-09T12:16:11.522Z,36.89
2023-10-09T12:18:39.645Z,38.13
2023-10-09T12:21:06.834Z,39.12
2023-10-09T12:23:36.023Z,38.72
2023-10-09T12:26:04.537Z,38.39
2023-10-09T12:28:33.331Z,38.82
2023-10-09T12:31:01.566Z,40.03
2023-10-09T12:33:30.241Z,41.33
2023-10-09T12:36:00.477Z,41.63
2023-10-09T12:38:33.135Z,42.03
2023-10-09T12:41:18.489Z,40.88
2023-10-09T12:43:44.383Z,41.99
2023-10-09T12:46:10.239Z,42.94
2023-10-09T12:48:36.695Z,41.87
2023-10-09T12:51:06.569Z,43.56
2023-10-09T12:53:34.104Z,45.15
2023-10-09T12:56:00.205Z,44.06
2023-10-09T12:58:27.276Z,42.29
2023-10-09T13:00:53.560Z,43.20
2023-10-09T13:03:20.356Z,44.26
2023-10-09T13:05:52.682Z,44.75
2023-10-09T13:08:21.723Z,45.14
2023-10-09T13:10:59.716Z,46.75
2023-10-09T13:13:40.143Z,46.53
2023-10-09T13:16:25.633Z,45.59
2023-10-09T13:18:54.230Z,45.80
2023-10-09T13:21:26.754Z,45.90
2023-10-09T13:23:55.062Z,46.47
2023-10-09T13:26:33.024Z,46.35
2023-10-09T13:29:01.764Z,47.86
2023-10-09T13:31:27.936Z,49.58
2023-10-09T13:33:55.567Z,49.56
2023-10-09T13:36:28.535Z,49.78
2023-10-09T13:38:55.412Z,51.77
2023-10-09T13:41:22.010Z,52.94
2023-10-09T13:43:48.164Z,54.69
2023-10-09T13:46:17.935Z,55.44
2023-10-09T13:48:45.690Z,55.37
2023-10-09T13:51:17.927Z,56.90
2023-10-09T13:53:48.151Z,58.87
2023-10-09T13:56:21.291Z,58.66
2023-10-09T13:58:51.913Z,59.36
2023-10-09T14:01:27.573Z,59.52
2023-10-09T14:03:59.940Z,60.01
2023-10-09T14:06:31.248Z,59.77
2023-10-09T14:09:05.651Z,62.47
2023-10-09T14:11:32.448Z,62.75
2023-10-09T14:14:11.357Z,62.40
2023-10-09T14:16:43.252Z,63.44
2023-10-09T14:19:13.475Z,64.89
2023-10-09T14:21:40.736Z,63.74
2023-10-09T14:24:19.350Z,65.13
2023-10-09T14:26:47.351Z,65.68
2023-10-09T14:29:17.226Z,65.55
2023-10-09T14:31:44.199Z,64.92
2023-10-09T14:34:10.116Z,66.65
2023-10-09T14:36:36.542Z,67.48
2023-10-09T14:39:04.955Z,67.36
2023-10-09T14:41:33.575Z,68.32
2023-10-09T14:43:59.557Z,68.53
2023-10-09T14:46:29.166Z,68.98
2023-10-09T14:48:55.610Z,69.58
2023-10-09T14:51:28.508Z,69.60
2023-10-09T14:54:03.527Z,69.81
2023-10-09T14:56:29.532Z,70.30
2023-10-09T14:58:59.395Z,70.24
2023-10-09T15:01:31.790Z,70.93
2023-10-09T15:04:00.136Z,71.06
2023-10-09T15:06:30.610Z,70.90
2023-10-09T15:09:08.584Z,71.91
2023-10-09T15:11:34.676Z,71.59
2023-10-09T15:14:00.798Z,72.18
2023-10-09T15:16:27.583Z,72.63
2023-10-09T15:18:55.046Z,72.67
2023-10-09T15:21:26.789Z,72.88
2023-10-09T15:23:59.536Z,72.79
2023-10-09T15:26:25.616Z,72.55
2023-10-09T15:28:52.320Z,72.82
2023-10-09T15:31:19.389Z,73.31
2023-10-09T15:33:48.025Z,72.93
2023-10-09T15:36:15.006Z,73.18
2023-10-09T15:38:41.102Z,73.51
2023-10-09T15:41:07.135Z,73.17
2023-10-09T15:43:35.222Z,73.51
2023-10-09T15:46:02.098Z,73.14
2023-10-09T15:48:28.251Z,73.39
2023-10-09T15:50:54.489Z,73.27
2023-10-09T15:53:22.063Z,72.87
2023-10-09T15:55:52.404Z,72.78
2023-10-09T15:58:18.202Z,73.07
2023-10-09T16:00:46.815Z,73.43
2023-10-09T16:03:14.432Z,73.16
2023-10-09T16:05:41.336Z,72.79
2023-10-09T16:08:08.592Z,73.12
2023-10-09T16:10:35.213Z,73.49
2023-10-09T16:13:01.111Z,73.41
2023-10-09T16:15:28.330Z,73.33
2023-10-09T16:18:03.508Z,74.05
2023-10-09T16:20:32.058Z,73.76
2023-10-09T16:22:59.610Z,73.90
2023-10-09T16:25:27.017Z,74.04
2023-10-09T16:27:55.087Z,74.01
2023-10-09T16:30:21.551Z,74.05
2023-10-09T16:32:51.363Z,73.97
2023-10-09T16:35:17.828Z,73.81
2023-10-09T16:37:44.004Z,74.13
2023-10-09T16:40:14.004Z,74.10
2023-10-09T16:42:42.715Z,74.03
2023-10-09T16:45:12.627Z,74.45
2023-10-09T16:47:39.234Z,74.05
2023-10-09T16:50:12.265Z,73.53
2023-10-09T16:52:38.662Z,74.41
2023-10-09T16:55:11.459Z,74.61
2023-10-09T16:57:39.686Z,73.88
2023-10-09T17:00:13.254Z,73.65
2023-10-09T17:02:41.001Z,73.86
2023-10-09T17:05:28.106Z,73.97
2023-10-09T17:07:56.974Z,74.34
2023-10-09T17:10:28.532Z,74.24
2023-10-09T17:12:55.421Z,74.45
2023-10-09T17:15:21.484Z,74.48
2023-10-09T17:17:51.169Z,74.99
2023-10-09T17:20:18.503Z,75.31
2023-10-09T17:22:46.830Z,75.25
2023-10-09T17:25:13.629Z,75.64
2023-10-09T17:27:41.134Z,75.10
2023-10-09T17:30:10.843Z,75.27
2023-10-09T17:32:37.569Z,75.14
2023-10-09T17:35:08.802Z,74.51
2023-10-09T17:37:40.008Z,74.50
2023-10-09T17:40:09.435Z,74.75
2023-10-09T17:42:35.933Z,74.48
2023-10-09T17:45:05.246Z,74.48
2023-10-09T17:47:37.450Z,74.44
2023-10-09T17:50:13.153Z,74.93
2023-10-09T17:52:39.704Z,75.09
2023-10-09T17:55:11.560Z,75.49
2023-10-09T17:57:40.415Z,75.47
2023-10-09T18:00:22.322Z,75.41
2023-10-09T18:02:49.297Z,75.08
2023-10-09T18:05:15.379Z,75.30
2023-10-09T18:07:44.055Z,75.06
2023-10-09T18:10:10.884Z,75.30
2023-10-09T18:12:39.006Z,75.40
2023-10-09T18:15:05.850Z,75.30
2023-10-09T18:17:35.662Z,75.09
2023-10-09T18:20:01.643Z,75.01
2023-10-09T18:22:29.200Z,74.89
2023-10-09T18:24:55.885Z,75.31
2023-10-09T18:27:22.783Z,75.20
2023-10-09T18:29:48.774Z,75.42
2023-10-09T18:32:15.542Z,75.21
2023-10-09T18:34:41.669Z,75.12
2023-10-09T18:37:08.437Z,75.18
2023-10-09T18:39:39.285Z,75.05
2023-10-09T18:42:07.288Z,75.17
2023-10-09T18:44:35.906Z,75.68
2023-10-09T18:47:01.751Z,75.84
2023-10-09T18:49:28.727Z,75.56
2023-10-09T18:51:55.976Z,75.59
2023-10-09T18:54:23.412Z,76.15
2023-10-09T18:56:49.723Z,76.47
2023-10-09T18:59:15.979Z,76.25
2023-10-09T19:01:42.039Z,76.96
2023-10-09T19:04:09.009Z,77.18
2023-10-09T19:06:38.396Z,77.25
2023-10-09T19:09:07.358Z,77.75
2023-10-09T19:11:33.832Z,77.63
2023-10-09T19:14:01.027Z,77.46
2023-10-09T19:16:28.139Z,77.33
2023-10-09T19:18:54.101Z,77.42
2023-10-09T19:21:23.040Z,77.76
2023-10-09T19:23:48.970Z,78.04
2023-10-09T19:26:14.992Z,77.71
2023-10-09T19:28:43.576Z,77.88
2023-10-09T19:31:11.521Z,77.96
2023-10-09T19:33:38.513Z,78.00
2023-10-09T19:36:11.682Z,78.29
2023-10-09T19:38:40.594Z,78.18
2023-10-09T19:41:09.486Z,77.49
2023-10-09T19:43:37.015Z,77.00
2023-10-09T19:46:04.053Z,75.45
2023-10-09T19:48:33.430Z,75.21
2023-10-09T19:51:07.278Z,74.29
2023-10-09T19:53:36.743Z,74.36
2023-10-09T19:56:03.116Z,74.50
2023-10-09T19:58:29.752Z,74.85
2023-10-09T20:00:57.987Z,74.94
2023-10-09T20:03:23.860Z,74.21
2023-10-09T20:05:50.300Z,74.32
2023-10-09T20:08:17.086Z,74.73
2023-10-09T20:10:43.480Z,75.12
2023-10-09T20:13:12.825Z,75.39
2023-10-09T20:15:46.195Z,76.45
2023-10-09T20:18:12.439Z,76.50
2023-10-09T20:20:39.379Z,76.23
2023-10-09T20:23:08.324Z,76.34
2023-10-09T20:25:34.539Z,76.66
2023-10-09T20:28:00.338Z,76.09
2023-10-09T20:30:26.211Z,75.82
2023-10-09T20:32:55.325Z,75.98
2023-10-09T20:35:27.030Z,76.52
2023-10-09T20:37:55.318Z,76.54
2023-10-09T20:40:24.611Z,76.31
2023-10-09T20:42:51.075Z,75.79
2023-10-09T20:45:22.085Z,75.92
2023-10-09T20:47:55.625Z,75.69
2023-10-09T20:50:22.492Z,75.60
2023-10-09T20:52:49.326Z,75.35
2023-10-09T20:55:25.145Z,75.39
2023-10-09T20:57:59.028Z,74.97
2023-10-09T21:00:27.112Z,75.57
2023-10-09T21:02:55.254Z,75.42
2023-10-09T21:05:23.818Z,75.32
2023-10-09T21:07:53.383Z,75.33
2023-10-09T21:10:21.249Z,75.85
2023-10-09T21:12:51.723Z,76.02
2023-10-09T21:15:20.896Z,76.35
2023-10-09T21:17:47.483Z,76.90
2023-10-09T21:20:17.566Z,77.02
2023-10-09T21:22:49.545Z,76.90
2023-10-09T21:25:20.588Z,76.93
2023-10-09T21:27:47.310Z,77.02
2023-10-09T21:30:15.997Z,77.41
2023-10-09T21:32:42.755Z,77.63
2023-10-09T21:35:18.076Z,77.50
2023-10-09T21:37:52.625Z,76.83
2023-10-09T21:40:29.456Z,76.25
2023-10-09T21:42:57.252Z,76.27
2023-10-09T21:45:24.107Z,76.23
2023-10-09T21:47:55.656Z,75.55
2023-10-09T21:50:26.693Z,75.83
2023-10-09T21:52:57.493Z,76.07
2023-10-09T21:55:24.452Z,75.73
2023-10-09T21:57:51.076Z,75.75
2023-10-09T22:00:18.857Z,75.89
2023-10-09T22:02:47.704Z,75.80
2023-10-09T22:05:20.986Z,76.02
2023-10-09T22:07:49.756Z,76.01
2023-10-09T22:10:15.828Z,75.75
2023-10-09T22:12:47.351Z,76.03
2023-10-09T22:15:19.922Z,76.16
2023-10-09T22:17:46.863Z,75.70
2023-10-09T22:20:20.649Z,76.09
2023-10-09T22:22:48.339Z,75.69
2023-10-09T22:25:15.027Z,75.88
2023-10-09T22:27:42.151Z,76.51
2023-10-09T22:30:12.757Z,76.62
2023-10-09T22:32:42.449Z,76.40
2023-10-09T22:35:14.253Z,76.02
2023-10-09T22:37:43.291Z,76.46
2023-10-09T22:40:26.464Z,76.44
2023-10-09T22:42:53.504Z,76.61
2023-10-09T22:45:32.313Z,76.82
2023-10-09T22:47:59.050Z,76.68
2023-10-09T22:50:35.024Z,77.11
2023-10-09T22:53:11.597Z,76.68
2023-10-09T22:55:44.443Z,76.34
2023-10-09T22:58:15.898Z,76.71
2023-10-09T23:00:49.332Z,76.42
2023-10-09T23:03:26.215Z,75.53
2023-10-09T23:06:11.850Z,76.04
2023-10-09T23:08:42.199Z,75.99
2023-10-09T23:11:14.449Z,76.22
2023-10-09T23:13:53.986Z,76.65
2023-10-09T23:16:35.807Z,75.94
2023-10-09T23:19:04.161Z,76.48
2023-10-09T23:21:34.714Z,76.62
2023-10-09T23:24:09.402Z,76.47
2023-10-09T23:26:52.406Z,76.71
2023-10-09T23:29:33.442Z,76.79
2023-10-09T23:32:19.765Z,76.37
2023-10-09T23:34:59.831Z,75.90
2023-10-09T23:37:38.194Z,76.58
2023-10-09T23:40:26.081Z,76.08
2023-10-09T23:42:57.732Z,76.28
2023-10-09T23:45:31.699Z,76.03
2023-10-09T23:47:59.377Z,76.00
2023-10-09T23:50:30.189Z,76.39
2023-10-09T23:52:58.020Z,76.52
2023-10-09T23:55:29.129Z,77.12
2023-10-09T23:57:58.932Z,77.31
